createdAt,value
2016-12-05T00:00:23.393Z,-2.93
2016-12-05T00:01:23.595Z,-2.86
2016-12-05T00:02:23.276Z,-2.85
2016-12-05T00:03:23.283Z,-2.89
2016-12-05T00:04:23.478Z,-2.97
2016-12-05T00:05:23.333Z,-3.04
2016-12-05T00:06:23.409Z,-2.99
2016-12-05T00:07:24.153Z,-2.96
2016-12-05T00:08:23.607Z,-3.05
2016-12-05T00:09:23.306Z,-3.1
2016-12-05T00:10:23.325Z,-3.02
2016-12-05T00:11:23.325Z,-3.04
2016-12-05T00:12:23.326Z,-3
2016-12-05T00:13:25.109Z,-2.99
2016-12-05T00:14:23.679Z,-3.13
2016-12-05T00:15:23.397Z,-3.07
2016-12-05T00:16:23.304Z,-3.1
2016-12-05T00:17:23.378Z,-3.17
2016-12-05T00:18:23.983Z,-3.1
2016-12-05T00:19:23.930Z,-2.96
2016-12-05T00:20:23.474Z,-3.04
2016-12-05T00:21:23.397Z,-2.93
2016-12-05T00:22:23.280Z,-2.97
2016-12-05T00:23:24.375Z,-3.14
2016-12-05T00:24:23.295Z,-3.04
2016-12-05T00:25:23.363Z,-3.02
2016-12-05T00:26:23.295Z,-2.87
2016-12-05T00:27:23.632Z,-3.07
2016-12-05T00:28:23.388Z,-2.99
2016-12-05T00:29:25.972Z,-3.05
2016-12-05T00:30:23.497Z,-3.1
2016-12-05T00:31:28.739Z,-3.08
2016-12-05T00:32:23.314Z,-3.04
2016-12-05T00:33:23.348Z,-3.04
2016-12-05T00:34:24.058Z,-3.13
2016-12-05T00:35:23.433Z,-3.07
2016-12-05T00:36:23.457Z,-3.07
2016-12-05T00:37:23.369Z,-3.13
2016-12-05T00:38:23.295Z,-3.17
2016-12-05T00:39:23.300Z,-3.05
2016-12-05T00:40:23.307Z,-3.15
2016-12-05T00:41:23.334Z,-3.17
2016-12-05T00:42:23.332Z,-3.02
2016-12-05T00:43:23.529Z,-3.13
2016-12-05T00:44:23.437Z,-3.17
2016-12-05T00:45:23.409Z,-3.2
2016-12-05T00:46:23.959Z,-3.29
2016-12-05T00:47:23.289Z,-3.18
2016-12-05T00:48:23.476Z,-3.1
2016-12-05T00:49:23.332Z,-3.14
2016-12-05T00:50:23.367Z,-3.2
2016-12-05T00:51:23.321Z,-3.15
2016-12-05T00:52:26.059Z,-3.11
2016-12-05T00:53:23.308Z,-3.07
2016-12-05T00:54:23.738Z,-3.11
2016-12-05T00:55:23.495Z,-3.15
2016-12-05T00:56:25.004Z,-3.15
2016-12-05T00:57:23.290Z,-3.13
2016-12-05T00:58:23.423Z,-3.18
2016-12-05T00:59:23.437Z,-3.25
2016-12-05T01:00:23.349Z,-3.11
2016-12-05T01:01:23.470Z,-3.17
2016-12-05T01:02:23.344Z,-3.15
2016-12-05T01:03:23.292Z,-3.14
2016-12-05T01:04:23.479Z,-3.17
2016-12-05T01:05:27.697Z,-3.15
2016-12-05T01:06:23.329Z,-3.11
2016-12-05T01:07:23.306Z,-3.18
2016-12-05T01:08:23.566Z,-3.15
2016-12-05T01:09:23.328Z,-3.15
2016-12-05T01:10:23.404Z,-3.08
2016-12-05T01:11:23.502Z,-3.22
2016-12-05T01:12:23.352Z,-3.23
2016-12-05T01:13:23.561Z,-3.2
2016-12-05T01:14:23.348Z,-3.23
2016-12-05T01:15:23.352Z,-3.17
2016-12-05T01:16:23.393Z,-3.18
2016-12-05T01:17:23.350Z,-3.32
2016-12-05T01:18:23.331Z,-3.25
2016-12-05T01:19:23.332Z,-3.31
2016-12-05T01:20:23.365Z,-3.36
2016-12-05T01:21:23.299Z,-3.28
2016-12-05T01:22:23.339Z,-3.36
2016-12-05T01:23:23.361Z,-3.35
2016-12-05T01:24:23.322Z,-3.35
2016-12-05T01:25:23.485Z,-3.36
2016-12-05T01:26:23.557Z,-3.29
2016-12-05T01:27:24.002Z,-3.38
2016-12-05T01:28:24.433Z,-3.38
2016-12-05T01:29:23.388Z,-3.39
2016-12-05T01:30:25.018Z,-3.44
2016-12-05T01:31:23.530Z,-3.38
2016-12-05T01:32:23.323Z,-3.26
2016-12-05T01:33:23.347Z,-3.25
2016-12-05T01:34:23.336Z,-3.23
2016-12-05T01:35:23.357Z,-3.32
2016-12-05T01:36:23.307Z,-3.32
2016-12-05T01:37:23.295Z,-3.41
2016-12-05T01:38:23.292Z,-3.29
2016-12-05T01:39:23.314Z,-3.26
2016-12-05T01:40:23.364Z,-3.25
2016-12-05T01:41:23.326Z,-3.26
2016-12-05T01:42:23.330Z,-3.23
2016-12-05T01:43:23.346Z,-3.15
2016-12-05T01:44:23.335Z,-3.41
2016-12-05T01:45:23.361Z,-3.23
2016-12-05T01:46:23.384Z,-3.2
2016-12-05T01:47:23.365Z,-3.36
2016-12-05T01:48:23.442Z,-3.29
2016-12-05T01:49:23.351Z,-3.39
2016-12-05T01:50:23.394Z,-3.31
2016-12-05T01:51:23.379Z,-3.13
2016-12-05T01:52:23.409Z,-3.23
2016-12-05T01:53:23.319Z,-3.23
2016-12-05T01:54:23.386Z,-3.2
2016-12-05T01:55:23.342Z,-3.25
2016-12-05T01:56:23.351Z,-3.15
2016-12-05T01:57:23.468Z,-3.2
2016-12-05T01:58:23.320Z,-3.2
2016-12-05T01:59:23.423Z,-3.07
2016-12-05T02:00:23.778Z,-3.14
2016-12-05T02:01:23.340Z,-3.15
2016-12-05T02:02:25.940Z,-3.29
2016-12-05T02:03:23.332Z,-3.22
2016-12-05T02:04:23.584Z,-3.23
2016-12-05T02:05:23.375Z,-3.33
2016-12-05T02:06:23.350Z,-3.26
2016-12-05T02:07:23.352Z,-3.28
2016-12-05T02:08:23.366Z,-3.29
2016-12-05T02:09:23.355Z,-3.17
2016-12-05T02:10:23.474Z,-3.29
2016-12-05T02:11:23.339Z,-3.38
2016-12-05T02:12:23.526Z,-3.25
2016-12-05T02:13:23.432Z,-3.23
2016-12-05T02:14:23.368Z,-3.14
2016-12-05T02:15:23.394Z,-3.46
2016-12-05T02:16:23.376Z,-3.2
2016-12-05T02:17:23.410Z,-3.32
2016-12-05T02:18:23.346Z,-3.38
2016-12-05T02:19:23.371Z,-3.39
2016-12-05T02:20:23.374Z,-3.33
2016-12-05T02:21:23.376Z,-3.43
2016-12-05T02:22:23.375Z,-3.39
2016-12-05T02:23:23.597Z,-3.57
2016-12-05T02:24:23.569Z,-3.39
2016-12-05T02:25:23.396Z,-3.56
2016-12-05T02:26:23.357Z,-3.47
2016-12-05T02:27:23.420Z,-3.43
2016-12-05T02:28:24.727Z,-3.54
2016-12-05T02:29:23.323Z,-3.39
2016-12-05T02:30:23.375Z,-3.46
2016-12-05T02:31:23.381Z,-3.6
2016-12-05T02:32:23.543Z,-3.54
2016-12-05T02:33:23.484Z,-3.36
2016-12-05T02:34:23.452Z,-3.46
2016-12-05T02:35:23.532Z,-3.44
2016-12-05T02:36:23.375Z,-3.41
2016-12-05T02:37:23.378Z,-3.36
2016-12-05T02:38:23.379Z,-3.49
2016-12-05T02:39:23.516Z,-3.5
2016-12-05T02:40:23.494Z,-3.41
2016-12-05T02:41:23.499Z,-3.47
2016-12-05T02:42:23.331Z,-3.56
2016-12-05T02:43:23.469Z,-3.56
2016-12-05T02:44:23.357Z,-3.44
2016-12-05T02:45:23.643Z,-3.36
2016-12-05T02:46:23.545Z,-3.51
2016-12-05T02:47:23.394Z,-3.49
2016-12-05T02:48:23.461Z,-3.54
2016-12-05T02:49:23.479Z,-3.41
2016-12-05T02:50:23.377Z,-3.62
2016-12-05T02:51:23.417Z,-3.5
2016-12-05T02:52:23.901Z,-3.53
2016-12-05T02:53:23.371Z,-3.65
2016-12-05T02:54:23.431Z,-3.56
2016-12-05T02:55:23.421Z,-3.57
2016-12-05T02:56:24.283Z,-3.76
2016-12-05T02:57:23.375Z,-3.65
2016-12-05T02:58:23.413Z,-3.67
2016-12-05T02:59:23.488Z,-3.6
2016-12-05T03:00:23.437Z,-3.76
2016-12-05T03:01:23.386Z,-3.67
2016-12-05T03:02:23.597Z,-3.7
2016-12-05T03:03:23.454Z,-3.68
2016-12-05T03:04:23.643Z,-3.8
2016-12-05T03:05:23.411Z,-3.72
2016-12-05T03:06:23.432Z,-3.62
2016-12-05T03:07:23.474Z,-3.75
2016-12-05T03:08:23.464Z,-3.53
2016-12-05T03:09:23.970Z,-3.57
2016-12-05T03:10:23.396Z,-3.6
2016-12-05T03:11:23.418Z,-3.53
2016-12-05T03:12:23.373Z,-3.54
2016-12-05T03:13:23.365Z,-3.49
2016-12-05T03:14:23.357Z,-3.49
2016-12-05T03:15:23.452Z,-3.51
2016-12-05T03:16:23.575Z,-3.44
2016-12-05T03:17:23.405Z,-3.53
2016-12-05T03:18:23.569Z,-3.49
2016-12-05T03:19:23.609Z,-3.57
2016-12-05T03:20:23.403Z,-3.56
2016-12-05T03:21:25.678Z,-3.56
2016-12-05T03:22:24.996Z,-3.47
2016-12-05T03:23:23.529Z,-3.51
2016-12-05T03:24:23.638Z,-3.57
2016-12-05T03:25:23.434Z,-3.61
2016-12-05T03:26:24.198Z,-3.6
2016-12-05T03:27:23.406Z,-3.64
2016-12-05T03:28:24.450Z,-3.65
2016-12-05T03:29:24.662Z,-3.7
2016-12-05T03:30:23.993Z,-3.64
2016-12-05T03:31:23.513Z,-3.56
2016-12-05T03:32:23.403Z,-3.7
2016-12-05T03:33:23.518Z,-3.75
2016-12-05T03:34:23.951Z,-3.91
2016-12-05T03:35:23.505Z,-3.8
2016-12-05T03:36:23.633Z,-3.83
2016-12-05T03:37:23.445Z,-3.86
2016-12-05T03:38:25.511Z,-3.8
2016-12-05T03:39:23.422Z,-3.78
2016-12-05T03:40:23.409Z,-3.75
2016-12-05T03:41:23.412Z,-3.72
2016-12-05T03:42:23.414Z,-3.67
2016-12-05T03:43:23.403Z,-3.64
2016-12-05T03:44:23.424Z,-3.8
2016-12-05T03:45:23.425Z,-3.68
2016-12-05T03:46:23.507Z,-3.7
2016-12-05T03:47:23.419Z,-3.64
2016-12-05T03:48:23.426Z,-3.71
2016-12-05T03:49:23.403Z,-3.76
2016-12-05T03:50:23.565Z,-3.8
2016-12-05T03:51:23.482Z,-3.68
2016-12-05T03:52:26.960Z,-3.75
2016-12-05T03:53:23.731Z,-3.9
2016-12-05T03:54:24.680Z,-3.81
2016-12-05T03:55:23.579Z,-3.76
2016-12-05T03:56:24.347Z,-3.78
2016-12-05T03:57:23.884Z,-3.99
2016-12-05T03:58:23.588Z,-3.83
2016-12-05T03:59:23.480Z,-3.94
2016-12-05T04:00:23.698Z,-3.99
2016-12-05T04:01:23.435Z,-3.98
2016-12-05T04:02:23.424Z,-4.02
2016-12-05T04:03:23.699Z,-4.04
2016-12-05T04:04:23.642Z,-4.01
2016-12-05T04:05:23.475Z,-4.18
2016-12-05T04:06:23.419Z,-4.3
2016-12-05T04:07:23.544Z,-4.11
2016-12-05T04:08:23.595Z,-4.08
2016-12-05T04:09:23.427Z,-4.2
2016-12-05T04:10:23.469Z,-4.18
2016-12-05T04:11:23.436Z,-4.25
2016-12-05T04:12:23.536Z,-4.14
2016-12-05T04:13:23.592Z,-4.23
2016-12-05T04:14:23.492Z,-4.41
2016-12-05T04:15:23.550Z,-4.33
2016-12-05T04:16:23.429Z,-4.36
2016-12-05T04:17:23.477Z,-4.38
2016-12-05T04:18:23.466Z,-4.48
2016-12-05T04:19:23.432Z,-4.26
2016-12-05T04:20:23.437Z,-4.44
2016-12-05T04:21:23.401Z,-4.43
2016-12-05T04:22:23.390Z,-4.37
2016-12-05T04:23:23.416Z,-4.33
2016-12-05T04:24:23.496Z,-4.43
2016-12-05T04:25:23.420Z,-4.43
2016-12-05T04:26:23.483Z,-4.46
2016-12-05T04:27:23.403Z,-4.48
2016-12-05T04:28:23.421Z,-4.48
2016-12-05T04:29:23.431Z,-4.43
2016-12-05T04:30:23.422Z,-4.33
2016-12-05T04:31:23.385Z,-4.29
2016-12-05T04:32:23.395Z,-4.41
2016-12-05T04:33:23.396Z,-4.48
2016-12-05T04:34:23.430Z,-4.46
2016-12-05T04:35:23.500Z,-4.36
2016-12-05T04:36:23.507Z,-4.47
2016-12-05T04:37:23.458Z,-4.44
2016-12-05T04:38:23.445Z,-4.3
2016-12-05T04:39:23.482Z,-4.15
2016-12-05T04:40:23.463Z,-4.37
2016-12-05T04:41:23.490Z,-4.3
2016-12-05T04:42:23.415Z,-4.22
2016-12-05T04:43:23.445Z,-4.32
2016-12-05T04:44:23.522Z,-4.14
2016-12-05T04:45:23.512Z,-4.2
2016-12-05T04:46:23.504Z,-4.43
2016-12-05T04:47:23.492Z,-4.29
2016-12-05T04:48:23.460Z,-4.28
2016-12-05T04:49:23.691Z,-4.33
2016-12-05T04:50:23.495Z,-4.41
2016-12-05T04:51:23.591Z,-4.28
2016-12-05T04:52:23.472Z,-4.38
2016-12-05T04:53:23.421Z,-4.47
2016-12-05T04:54:23.455Z,-4.46
2016-12-05T04:55:23.464Z,-4.59
2016-12-05T04:56:23.470Z,-4.47
2016-12-05T04:57:23.520Z,-4.43
2016-12-05T04:58:23.476Z,-4.47
2016-12-05T04:59:23.452Z,-4.54
2016-12-05T05:00:23.520Z,-4.61
2016-12-05T05:01:23.432Z,-4.77
2016-12-05T05:02:24.231Z,-4.65
2016-12-05T05:03:23.439Z,-4.65
2016-12-05T05:04:23.436Z,-4.68
2016-12-05T05:05:23.455Z,-4.64
2016-12-05T05:06:23.452Z,-4.75
2016-12-05T05:07:23.442Z,-4.82
2016-12-05T05:08:23.446Z,-4.86
2016-12-05T05:09:23.754Z,-4.76
2016-12-05T05:10:23.447Z,-4.8
2016-12-05T05:11:23.452Z,-4.8
2016-12-05T05:12:23.467Z,-4.71
2016-12-05T05:13:23.459Z,-4.68
2016-12-05T05:14:23.433Z,-4.86
2016-12-05T05:15:23.489Z,-4.75
2016-12-05T05:16:23.449Z,-4.75
2016-12-05T05:17:23.473Z,-4.79
2016-12-05T05:18:23.446Z,-4.83
2016-12-05T05:19:23.564Z,-4.94
2016-12-05T05:20:23.471Z,-4.8
2016-12-05T05:21:23.475Z,-4.94
2016-12-05T05:22:23.460Z,-4.95
2016-12-05T05:23:23.470Z,-4.93
2016-12-05T05:24:23.432Z,-4.98
2016-12-05T05:25:23.448Z,-4.94
2016-12-05T05:26:23.476Z,-4.97
2016-12-05T05:27:23.417Z,-4.95
2016-12-05T05:28:23.464Z,-5.03
2016-12-05T05:29:23.457Z,-4.91
2016-12-05T05:30:23.441Z,-5.01
2016-12-05T05:31:23.801Z,-4.87
2016-12-05T05:32:23.432Z,-4.95
2016-12-05T05:33:23.482Z,-4.86
2016-12-05T05:34:23.448Z,-4.91
2016-12-05T05:35:23.469Z,-4.82
2016-12-05T05:36:23.461Z,-4.86
2016-12-05T05:37:23.535Z,-4.75
2016-12-05T05:38:23.606Z,-4.82
2016-12-05T05:39:23.451Z,-4.8
2016-12-05T05:40:23.469Z,-4.93
2016-12-05T05:41:23.453Z,-4.97
2016-12-05T05:42:23.437Z,-4.86
2016-12-05T05:43:23.472Z,-4.98
2016-12-05T05:44:23.478Z,-4.79
2016-12-05T05:45:23.502Z,-4.76
2016-12-05T05:46:23.482Z,-4.83
2016-12-05T05:47:23.444Z,-4.85
2016-12-05T05:48:23.423Z,-4.98
2016-12-05T05:49:23.443Z,-4.73
2016-12-05T05:50:23.687Z,-4.85
2016-12-05T05:51:23.514Z,-4.85
2016-12-05T05:52:23.495Z,-4.75
2016-12-05T05:53:23.456Z,-4.89
2016-12-05T05:54:23.437Z,-4.77
2016-12-05T05:55:23.457Z,-4.83
2016-12-05T05:56:23.482Z,-4.89
2016-12-05T05:57:23.512Z,-4.85
2016-12-05T05:58:23.459Z,-4.85
2016-12-05T05:59:23.479Z,-4.86
2016-12-05T06:00:23.516Z,-4.91
2016-12-05T06:01:23.499Z,-4.71
2016-12-05T06:02:23.621Z,-4.95
2016-12-05T06:03:23.949Z,-4.82
2016-12-05T06:04:23.484Z,-5
2016-12-05T06:05:23.931Z,-4.87
2016-12-05T06:06:23.536Z,-4.82
2016-12-05T06:07:23.519Z,-5
2016-12-05T06:08:23.513Z,-4.85
2016-12-05T06:09:23.549Z,-4.95
2016-12-05T06:10:23.575Z,-5.12
2016-12-05T06:11:23.480Z,-5.11
2016-12-05T06:12:23.526Z,-4.91
2016-12-05T06:13:23.505Z,-5.11
2016-12-05T06:14:23.513Z,-5.01
2016-12-05T06:15:23.847Z,-5.01
2016-12-05T06:16:24.933Z,-5.08
2016-12-05T06:17:23.524Z,-5.2
2016-12-05T06:18:23.543Z,-4.98
2016-12-05T06:19:23.554Z,-5.08
2016-12-05T06:20:23.548Z,-5.14
2016-12-05T06:21:24.402Z,-5.17
2016-12-05T06:22:23.553Z,-5.05
2016-12-05T06:23:24.810Z,-4.98
2016-12-05T06:24:24.551Z,-5.05
2016-12-05T06:25:23.524Z,-5.14
2016-12-05T06:26:23.657Z,-5
2016-12-05T06:27:24.379Z,-4.98
2016-12-05T06:28:23.556Z,-5.11
2016-12-05T06:29:23.555Z,-4.98
2016-12-05T06:30:23.545Z,-5.11
2016-12-05T06:31:24.353Z,-5.04
2016-12-05T06:32:24.070Z,-5.04
2016-12-05T06:33:23.578Z,-5.03
2016-12-05T06:34:23.719Z,-5.11
2016-12-05T06:35:23.566Z,-5.05
2016-12-05T06:36:23.546Z,-4.98
2016-12-05T06:37:23.546Z,-5.08
2016-12-05T06:38:24.126Z,-5.11
2016-12-05T06:39:23.542Z,-5.11
2016-12-05T06:40:23.730Z,-4.94
2016-12-05T06:41:23.516Z,-5.05
2016-12-05T06:42:23.503Z,-5.01
2016-12-05T06:43:23.985Z,-5.12
2016-12-05T06:44:23.546Z,-5.08
2016-12-05T06:45:24.235Z,-5.16
2016-12-05T06:46:23.531Z,-4.98
2016-12-05T06:47:23.542Z,-5.14
2016-12-05T06:48:23.865Z,-5.03
2016-12-05T06:49:23.539Z,-5.01
2016-12-05T06:50:23.504Z,-5.16
2016-12-05T06:51:23.619Z,-4.97
2016-12-05T06:52:23.542Z,-4.95
2016-12-05T06:53:23.511Z,-5
2016-12-05T06:54:24.608Z,-5.16
2016-12-05T06:55:23.522Z,-5.11
2016-12-05T06:56:23.559Z,-5.01
2016-12-05T06:57:23.518Z,-5.07
2016-12-05T06:58:23.530Z,-5.05
2016-12-05T07:03:41.958Z,-5.03
2016-12-05T07:03:52.038Z,-5.12
2016-12-05T07:04:52.480Z,-5.01
2016-12-05T07:05:52.008Z,-5.05
2016-12-05T07:06:52.004Z,-4.83
2016-12-05T07:07:51.996Z,-4.83
2016-12-05T07:08:51.968Z,-4.95
2016-12-05T07:09:52.006Z,-4.91
2016-12-05T07:10:52.007Z,-4.77
2016-12-05T07:11:52.004Z,-4.87
2016-12-05T07:12:52.952Z,-4.83
2016-12-05T07:13:52.037Z,-4.87
2016-12-05T07:14:51.983Z,-4.77
2016-12-05T07:15:52.137Z,-4.89
2016-12-05T07:16:51.994Z,-4.95
2016-12-05T07:17:52.310Z,-4.89
2016-12-05T07:18:52.019Z,-4.8
2016-12-05T07:19:52.553Z,-4.89
2016-12-05T07:20:53.132Z,-4.86
2016-12-05T07:21:54.221Z,-4.95
2016-12-05T07:22:52.005Z,-4.98
2016-12-05T07:23:52.399Z,-4.94
2016-12-05T07:24:52.027Z,-4.95
2016-12-05T07:25:52.033Z,-4.94
2016-12-05T07:26:51.993Z,-5
2016-12-05T07:27:52.166Z,-5.05
2016-12-05T07:28:52.860Z,-4.95
2016-12-05T07:29:52.022Z,-5
2016-12-05T07:30:52.012Z,-4.93
2016-12-05T07:31:51.965Z,-5.03
2016-12-05T07:32:51.997Z,-5.01
2016-12-05T07:33:52.680Z,-5.01
2016-12-05T07:34:52.116Z,-4.86
2016-12-05T07:35:52.194Z,-4.98
2016-12-05T07:36:52.036Z,-5.07
2016-12-05T07:37:52.137Z,-4.94
2016-12-05T07:38:52.057Z,-5.01
2016-12-05T07:39:52.087Z,-4.89
2016-12-05T07:40:52.158Z,-5.01
2016-12-05T07:41:52.063Z,-4.91
2016-12-05T07:42:52.001Z,-4.82
2016-12-05T07:43:52.878Z,-4.83
2016-12-05T07:44:52.052Z,-4.97
2016-12-05T07:45:52.049Z,-5.03
2016-12-05T07:46:52.021Z,-5.04
2016-12-05T07:47:52.041Z,-4.86
2016-12-05T07:48:52.048Z,-4.97
2016-12-05T07:49:52.081Z,-5
2016-12-05T07:50:52.000Z,-5.01
2016-12-05T07:51:52.049Z,-5
2016-12-05T07:52:52.014Z,-5.03
2016-12-05T07:53:52.041Z,-5.04
2016-12-05T07:54:51.989Z,-4.91
2016-12-05T07:55:52.029Z,-4.86
2016-12-05T07:56:52.052Z,-4.97
2016-12-05T07:57:52.020Z,-4.89
2016-12-05T07:58:52.079Z,-4.79
2016-12-05T07:59:52.066Z,-4.89
2016-12-05T08:00:52.010Z,-4.79
2016-12-05T08:01:52.032Z,-5
2016-12-05T08:02:52.032Z,-4.8
2016-12-05T08:03:52.097Z,-4.87
2016-12-05T08:04:52.036Z,-4.83
2016-12-05T08:05:52.016Z,-4.83
2016-12-05T08:06:52.068Z,-4.87
2016-12-05T08:07:52.072Z,-4.83
2016-12-05T08:08:52.051Z,-4.79
2016-12-05T08:09:52.030Z,-4.79
2016-12-05T08:10:52.024Z,-4.68
2016-12-05T08:11:52.057Z,-4.62
2016-12-05T08:12:52.088Z,-4.65
2016-12-05T08:13:52.094Z,-4.68
2016-12-05T08:14:52.075Z,-4.66
2016-12-05T08:15:52.038Z,-4.66
2016-12-05T08:16:52.063Z,-4.66
2016-12-05T08:17:52.070Z,-4.62
2016-12-05T08:18:52.057Z,-4.55
2016-12-05T08:19:52.089Z,-4.51
2016-12-05T08:20:52.012Z,-4.61
2016-12-05T08:21:52.020Z,-4.58
2016-12-05T08:22:52.038Z,-4.48
2016-12-05T08:23:52.056Z,-4.59
2016-12-05T08:24:52.075Z,-4.47
2016-12-05T08:25:52.158Z,-4.36
2016-12-05T08:26:52.051Z,-4.37
2016-12-05T08:27:52.030Z,-4.37
2016-12-05T08:28:52.115Z,-4.3
2016-12-05T08:29:52.104Z,-4.41
2016-12-05T08:30:52.054Z,-4.4
2016-12-05T08:31:52.096Z,-4.47
2016-12-05T08:32:52.070Z,-4.38
2016-12-05T08:33:52.073Z,-4.23
2016-12-05T08:34:52.088Z,-4.14
2016-12-05T08:35:52.073Z,-4.09
2016-12-05T08:36:52.063Z,-4.19
2016-12-05T08:37:52.104Z,-4.2
2016-12-05T08:38:52.107Z,-4.04
2016-12-05T08:39:52.080Z,-4.12
2016-12-05T08:40:52.091Z,-4.02
2016-12-05T08:41:52.132Z,-4.07
2016-12-05T08:42:52.120Z,-4.01
2016-12-05T08:43:52.075Z,-3.9
2016-12-05T08:44:52.054Z,-3.87
2016-12-05T08:45:52.073Z,-3.87
2016-12-05T08:46:52.144Z,-3.9
2016-12-05T08:48:02.173Z,-3.87
2016-12-05T08:48:52.097Z,-3.86
2016-12-05T08:49:52.079Z,-3.81
2016-12-05T08:50:52.051Z,-3.67
2016-12-05T08:51:52.057Z,-3.65
2016-12-05T08:52:52.066Z,-3.65
2016-12-05T08:53:52.083Z,-3.57
2016-12-05T08:54:52.097Z,-3.56
2016-12-05T08:55:52.042Z,-3.61
2016-12-05T08:56:52.030Z,-3.53
2016-12-05T08:57:52.267Z,-3.41
2016-12-05T08:58:52.064Z,-3.35
2016-12-05T08:59:52.028Z,-3.39
2016-12-05T09:00:52.004Z,-3.29
2016-12-05T09:01:52.042Z,-3.22
2016-12-05T09:02:52.059Z,-3.28
2016-12-05T09:03:52.043Z,-3.18
2016-12-05T09:04:52.043Z,-3.11
2016-12-05T09:05:52.038Z,-3
2016-12-05T09:06:52.061Z,-2.75
2016-12-05T09:07:52.113Z,-2.99
2016-12-05T09:08:52.105Z,-2.71
2016-12-05T09:09:52.061Z,-2.81
2016-12-05T09:10:52.028Z,-2.75
2016-12-05T09:11:52.056Z,-2.71
2016-12-05T09:12:52.092Z,-2.64
2016-12-05T09:13:52.134Z,-2.56
2016-12-05T09:14:52.112Z,-2.58
2016-12-05T09:15:52.169Z,-2.42
2016-12-05T09:16:52.128Z,-2.39
2016-12-05T09:17:52.078Z,-2.47
2016-12-05T09:18:52.087Z,-2.28
2016-12-05T09:19:52.095Z,-2.23
2016-12-05T09:20:52.054Z,-2.26
2016-12-05T09:21:52.077Z,-2.08
2016-12-05T09:22:52.089Z,-2.16
2016-12-05T09:23:52.134Z,-2.1
2016-12-05T09:24:52.067Z,-2
2016-12-05T09:25:52.085Z,-1.98
2016-12-05T09:26:52.065Z,-1.96
2016-12-05T09:27:52.071Z,-1.9
2016-12-05T09:28:52.097Z,-1.95
2016-12-05T09:29:52.073Z,-1.75
2016-12-05T09:30:52.105Z,-1.81
2016-12-05T09:31:52.089Z,-1.81
2016-12-05T09:32:52.123Z,-1.67
2016-12-05T09:33:52.137Z,-1.75
2016-12-05T09:34:52.092Z,-1.62
2016-12-05T09:35:52.053Z,-1.67
2016-12-05T09:36:52.105Z,-1.63
2016-12-05T09:37:52.083Z,-1.63
2016-12-05T09:38:52.177Z,-1.6
2016-12-05T09:39:52.077Z,-1.54
2016-12-05T09:40:52.077Z,-1.51
2016-12-05T09:41:52.106Z,-1.45
2016-12-05T09:42:52.094Z,-1.54
2016-12-05T09:43:52.103Z,-1.42
2016-12-05T09:44:52.088Z,-1.41
2016-12-05T09:45:52.158Z,-1.39
2016-12-05T09:46:52.093Z,-1.31
2016-12-05T09:47:52.109Z,-1.41
2016-12-05T09:48:52.176Z,-1.23
2016-12-05T09:49:52.107Z,-1.24
2016-12-05T09:50:52.133Z,-1.27
2016-12-05T09:51:52.106Z,-1.28
2016-12-05T09:52:52.111Z,-1.28
2016-12-05T09:53:52.322Z,-1.18
2016-12-05T09:54:52.104Z,-1.12
2016-12-05T09:55:52.132Z,-1.07
2016-12-05T09:56:52.088Z,-1.05
2016-12-05T09:57:52.157Z,-0.91
2016-12-05T09:58:52.120Z,-1.1
2016-12-05T09:59:52.127Z,-1.03
2016-12-05T10:00:52.109Z,-0.83
2016-12-05T10:01:52.139Z,-0.8
2016-12-05T10:02:52.251Z,-0.8
2016-12-05T10:03:52.196Z,-0.83
2016-12-05T10:04:52.143Z,-0.69
2016-12-05T10:05:52.149Z,-0.75
2016-12-05T10:06:52.074Z,-0.68
2016-12-05T10:07:52.165Z,-0.72
2016-12-05T10:08:52.538Z,-0.62
2016-12-05T10:09:52.148Z,-0.69
2016-12-05T10:10:52.202Z,-0.54
2016-12-05T10:11:52.134Z,-0.55
2016-12-05T10:12:52.211Z,-0.52
2016-12-05T10:13:52.184Z,-0.55
2016-12-05T10:14:52.091Z,-0.68
2016-12-05T10:15:52.134Z,-0.52
2016-12-05T10:16:52.103Z,-0.51
2016-12-05T10:17:52.082Z,-0.45
2016-12-05T10:18:52.113Z,-0.57
2016-12-05T10:19:52.094Z,-0.44
2016-12-05T10:20:52.139Z,-0.41
2016-12-05T10:21:52.132Z,-0.37
2016-12-05T10:22:52.112Z,-0.44
2016-12-05T10:23:52.111Z,-0.29
2016-12-05T10:24:52.137Z,-0.31
2016-12-05T10:25:52.102Z,-0.18
2016-12-05T10:26:52.099Z,-0.33
2016-12-05T10:27:52.410Z,-0.22
2016-12-05T10:28:52.124Z,-0.3
2016-12-05T10:29:52.159Z,-0.12
2016-12-05T10:30:52.145Z,-0.08
2016-12-05T10:31:52.131Z,-0.11
2016-12-05T10:32:52.139Z,0.05
2016-12-05T10:33:52.131Z,0.06
2016-12-05T10:34:52.157Z,0.13
2016-12-05T10:35:52.182Z,0.16
2016-12-05T10:36:52.107Z,0.1
2016-12-05T10:37:52.164Z,0.13
2016-12-05T10:38:52.148Z,0.25
2016-12-05T10:39:52.121Z,0.18
2016-12-05T10:40:52.170Z,0.31
2016-12-05T10:41:52.113Z,0.39
2016-12-05T10:42:52.197Z,0.42
2016-12-05T10:43:52.172Z,0.45
2016-12-05T10:44:52.148Z,0.33
2016-12-05T10:45:52.178Z,0.34
2016-12-05T10:46:52.158Z,0.6
2016-12-05T10:47:52.131Z,0.49
2016-12-05T10:48:52.155Z,0.65
2016-12-05T10:49:52.137Z,0.62
2016-12-05T10:50:52.131Z,0.72
2016-12-05T10:51:52.158Z,0.8
2016-12-05T10:52:52.156Z,0.83
2016-12-05T10:53:52.153Z,0.82
2016-12-05T10:54:52.118Z,0.71
2016-12-05T10:55:52.206Z,0.9
2016-12-05T10:56:52.142Z,0.97
2016-12-05T10:57:52.194Z,0.9
2016-12-05T10:58:52.187Z,0.96
2016-12-05T10:59:52.250Z,1.07
2016-12-05T11:00:52.156Z,1.08
2016-12-05T11:01:52.221Z,1.19
2016-12-05T11:02:52.184Z,1.14
2016-12-05T11:03:52.227Z,1.26
2016-12-05T11:04:52.263Z,1.26
2016-12-05T11:05:52.264Z,1.43
2016-12-05T11:06:52.349Z,1.4
2016-12-05T11:07:52.275Z,1.51
2016-12-05T11:08:52.143Z,1.37
2016-12-05T11:09:52.202Z,1.52
2016-12-05T11:10:52.218Z,1.61
2016-12-05T11:11:52.172Z,1.52
2016-12-05T11:12:52.115Z,1.57
2016-12-05T11:13:52.221Z,1.79
2016-12-05T11:14:52.189Z,1.69
2016-12-05T11:15:52.161Z,1.87
2016-12-05T11:16:52.187Z,1.94
2016-12-05T11:17:52.208Z,1.97
2016-12-05T11:18:52.162Z,2.01
2016-12-05T11:19:52.159Z,2.2
2016-12-05T11:20:52.173Z,2.09
2016-12-05T11:21:52.194Z,2.1
2016-12-05T11:22:52.244Z,2.23
2016-12-05T11:23:52.226Z,2.26
2016-12-05T11:24:52.178Z,2.19
2016-12-05T11:25:52.167Z,2.33
2016-12-05T11:26:52.165Z,2.27
2016-12-05T11:27:52.177Z,2.23
2016-12-05T11:28:52.152Z,2.35
2016-12-05T11:29:52.201Z,2.44
2016-12-05T11:30:52.154Z,2.59
2016-12-05T11:31:52.157Z,2.35
2016-12-05T11:32:52.291Z,2.44
2016-12-05T11:33:52.177Z,2.41
2016-12-05T11:34:52.194Z,2.52
2016-12-05T11:35:52.151Z,2.56
2016-12-05T11:36:52.205Z,2.56
2016-12-05T11:37:52.234Z,2.64
2016-12-05T11:38:52.388Z,2.61
2016-12-05T11:39:52.192Z,2.59
2016-12-05T11:40:52.164Z,2.49
2016-12-05T11:41:52.225Z,2.7
2016-12-05T11:42:52.202Z,2.61
2016-12-05T11:43:52.213Z,2.61
2016-12-05T11:44:52.231Z,2.69
2016-12-05T11:45:52.342Z,2.63
2016-12-05T11:46:52.194Z,2.73
2016-12-05T11:47:52.263Z,2.69
2016-12-05T11:48:52.207Z,2.69
2016-12-05T11:49:52.222Z,2.69
2016-12-05T11:50:52.225Z,2.85
2016-12-05T11:51:52.209Z,2.71
2016-12-05T11:52:52.212Z,2.79
2016-12-05T11:53:52.185Z,2.73
2016-12-05T11:54:52.239Z,2.84
2016-12-05T11:55:52.206Z,2.92
2016-12-05T11:56:52.220Z,2.87
2016-12-05T11:57:52.305Z,2.94
2016-12-05T11:58:52.282Z,2.88
2016-12-05T11:59:52.220Z,2.91
2016-12-05T12:00:52.227Z,3
2016-12-05T12:01:52.196Z,2.95
2016-12-05T12:02:52.210Z,3.1
2016-12-05T12:03:52.281Z,2.92
2016-12-05T12:04:52.212Z,3.05
2016-12-05T12:05:52.231Z,3.07
2016-12-05T12:06:52.205Z,3.25
2016-12-05T12:07:52.225Z,3.09
2016-12-05T12:08:52.214Z,3.27
2016-12-05T12:09:52.476Z,3.2
2016-12-05T12:10:52.160Z,3.28
2016-12-05T12:11:52.214Z,3.27
2016-12-05T12:12:52.214Z,3.18
2016-12-05T12:13:52.163Z,3.49
2016-12-05T12:14:52.188Z,3.36
2016-12-05T12:15:52.214Z,3.4
2016-12-05T12:16:52.214Z,3.33
2016-12-05T12:17:52.262Z,3.43
2016-12-05T12:18:52.230Z,3.6
2016-12-05T12:19:52.163Z,3.44
2016-12-05T12:20:52.192Z,3.42
2016-12-05T12:21:52.178Z,3.54
2016-12-05T12:22:52.255Z,3.6
2016-12-05T12:23:52.174Z,3.64
2016-12-05T12:24:52.383Z,3.62
2016-12-05T12:25:52.193Z,3.62
2016-12-05T12:26:52.190Z,3.62
2016-12-05T12:27:52.193Z,3.6
2016-12-05T12:28:52.220Z,3.58
2016-12-05T12:29:52.273Z,3.7
2016-12-05T12:30:52.193Z,3.72
2016-12-05T12:31:52.215Z,3.71
2016-12-05T12:32:52.175Z,3.83
2016-12-05T12:33:52.203Z,3.7
2016-12-05T12:34:52.215Z,3.83
2016-12-05T12:35:52.183Z,3.94
2016-12-05T12:36:52.173Z,3.96
2016-12-05T12:37:52.214Z,3.82
2016-12-05T12:38:52.234Z,3.9
2016-12-05T12:39:52.162Z,3.96
2016-12-05T12:40:52.421Z,3.94
2016-12-05T12:41:52.242Z,3.9
2016-12-05T12:42:52.441Z,3.94
2016-12-05T12:43:52.364Z,4.01
2016-12-05T12:44:52.183Z,4
2016-12-05T12:45:52.275Z,4.1
2016-12-05T12:46:52.162Z,3.75
2016-12-05T12:47:52.304Z,3.96
2016-12-05T12:48:52.194Z,3.94
2016-12-05T12:49:52.183Z,4.06
2016-12-05T12:50:52.298Z,4.03
2016-12-05T12:51:52.231Z,4
2016-12-05T12:52:52.317Z,3.98
2016-12-05T12:53:52.210Z,4.14
2016-12-05T12:54:52.206Z,4.18
2016-12-05T12:55:52.534Z,4.06
2016-12-05T12:56:52.458Z,4.03
2016-12-05T12:57:52.199Z,4.15
2016-12-05T12:58:52.290Z,4.15
2016-12-05T12:59:52.237Z,4.22
2016-12-05T13:00:52.233Z,4.22
2016-12-05T13:01:52.737Z,4.14
2016-12-05T13:02:52.172Z,4.1
2016-12-05T13:03:52.185Z,4.08
2016-12-05T13:04:52.193Z,4.06